createdAt,value
2019-03-15T00:01:30.430Z,15.87
2019-03-15T00:03:58.535Z,16.57
2019-03-15T00:06:26.693Z,10.53
2019-03-15T00:08:54.736Z,11.80
2019-03-15T00:11:22.824Z,13.43
2019-03-15T00:13:50.895Z,11.53
2019-03-15T00:16:19.446Z,9.40
2019-03-15T00:18:47.681Z,7.67
2019-03-15T00:21:15.730Z,8.77
2019-03-15T00:23:43.893Z,13.97
2019-03-15T00:26:12.018Z,10.10
2019-03-15T00:28:40.179Z,10.43
2019-03-15T00:31:08.373Z,12.00
2019-03-15T00:33:36.539Z,12.30
2019-03-15T00:36:04.690Z,11.07
2019-03-15T00:38:32.813Z,12.83
2019-03-15T00:41:00.902Z,10.43
2019-03-15T00:43:29.027Z,15.80
2019-03-15T00:45:57.406Z,13.97
2019-03-15T00:48:25.529Z,8.07
2019-03-15T00:50:54.707Z,11.83
2019-03-15T00:53:22.828Z,11.50
2019-03-15T00:55:51.003Z,11.00
2019-03-15T00:58:19.200Z,11.33
2019-03-15T01:00:47.471Z,11.50
2019-03-15T01:03:15.588Z,8.53
2019-03-15T01:05:43.735Z,15.03
2019-03-15T01:08:11.934Z,11.10
2019-03-15T01:10:40.111Z,12.80
2019-03-15T01:13:08.218Z,12.63
2019-03-15T01:15:36.461Z,17.53
2019-03-15T01:18:04.730Z,12.40
2019-03-15T01:20:33.032Z,13.40
2019-03-15T01:23:01.103Z,12.50
2019-03-15T01:25:29.150Z,9.83
2019-03-15T01:27:57.222Z,8.13
2019-03-15T01:30:25.333Z,10.63
2019-03-15T01:32:53.383Z,16.27
2019-03-15T01:35:22.739Z,17.40
2019-03-15T01:37:50.839Z,11.90
2019-03-15T01:40:19.096Z,17.10
2019-03-15T01:42:47.899Z,17.73
2019-03-15T01:45:16.130Z,15.63
2019-03-15T01:47:44.212Z,14.10
2019-03-15T01:50:12.368Z,14.90
2019-03-15T01:52:40.566Z,15.90
2019-03-15T01:55:08.666Z,13.03
2019-03-15T01:57:36.947Z,17.80
2019-03-15T02:00:06.616Z,14.20
2019-03-15T02:02:34.736Z,13.57
2019-03-15T02:05:03.050Z,16.13
2019-03-15T02:07:31.170Z,13.73
2019-03-15T02:09:59.364Z,16.77
2019-03-15T02:12:27.463Z,20.90
2019-03-15T02:14:55.612Z,9.83
2019-03-15T02:17:23.819Z,13.77
2019-03-15T02:19:51.908Z,13.17
2019-03-15T02:22:20.012Z,13.30
2019-03-15T02:24:48.225Z,12.73
2019-03-15T02:27:16.302Z,16.10
2019-03-15T02:29:44.367Z,11.50
2019-03-15T02:32:12.930Z,8.23
2019-03-15T02:34:41.346Z,13.47
2019-03-15T02:37:09.446Z,14.53
2019-03-15T02:39:37.602Z,9.23
2019-03-15T02:42:06.059Z,14.97
2019-03-15T02:44:34.208Z,12.97
2019-03-15T02:47:02.372Z,11.63
2019-03-15T02:49:30.571Z,10.43
2019-03-15T02:51:58.741Z,11.47
2019-03-15T02:54:27.405Z,13.17
2019-03-15T02:56:55.781Z,15.97
2019-03-15T02:59:23.829Z,14.50
2019-03-15T03:01:51.845Z,12.53
2019-03-15T03:04:19.939Z,13.57
2019-03-15T03:06:48.036Z,12.97
2019-03-15T03:09:16.186Z,14.47
2019-03-15T03:11:44.320Z,15.23
2019-03-15T03:14:12.370Z,17.23
2019-03-15T03:16:40.379Z,15.53
2019-03-15T03:19:08.464Z,21.30
2019-03-15T03:21:36.670Z,12.13
2019-03-15T03:24:04.879Z,10.87
2019-03-15T03:26:33.288Z,15.57
2019-03-15T03:29:02.445Z,12.33
2019-03-15T03:31:30.641Z,8.63
2019-03-15T03:33:58.683Z,8.70
2019-03-15T03:36:26.742Z,9.70
2019-03-15T03:38:54.861Z,14.30
2019-03-15T03:41:23.241Z,8.80
2019-03-15T03:43:51.556Z,13.40
2019-03-15T03:46:19.768Z,11.33
2019-03-15T03:48:47.834Z,13.90
2019-03-15T03:51:15.899Z,12.07
2019-03-15T03:53:44.015Z,11.10
2019-03-15T03:56:12.079Z,15.73
2019-03-15T03:58:40.209Z,21.03
2019-03-15T04:01:08.307Z,12.73
2019-03-15T04:03:36.508Z,17.67
2019-03-15T04:06:04.691Z,13.73
2019-03-15T04:08:32.916Z,17.60
2019-03-15T04:11:01.083Z,16.57
2019-03-15T04:13:29.214Z,9.80
2019-03-15T04:15:57.577Z,16.13
2019-03-15T04:18:25.769Z,14.17
2019-03-15T04:20:54.226Z,14.00
2019-03-15T04:23:22.354Z,18.73
2019-03-15T04:25:50.509Z,12.57
2019-03-15T04:28:18.839Z,16.03
2019-03-15T04:30:46.978Z,13.83
2019-03-15T04:33:15.119Z,16.60
2019-03-15T04:35:43.283Z,21.13
2019-03-15T04:38:11.392Z,18.67
2019-03-15T04:40:39.467Z,19.53
2019-03-15T04:43:07.496Z,26.77
2019-03-15T04:45:35.546Z,20.93
2019-03-15T04:48:03.687Z,31.13
2019-03-15T04:50:31.755Z,30.37
2019-03-15T04:52:59.881Z,33.03
2019-03-15T04:55:28.004Z,29.57
2019-03-15T04:57:56.416Z,37.07
2019-03-15T05:00:24.509Z,39.60
2019-03-15T05:02:52.546Z,32.27
2019-03-15T05:05:20.752Z,31.57
2019-03-15T05:07:48.917Z,33.17
2019-03-15T05:10:16.944Z,33.43
2019-03-15T05:12:45.049Z,34.40
2019-03-15T05:15:13.172Z,37.83
2019-03-15T05:17:41.320Z,31.43
2019-03-15T05:20:09.471Z,32.57
2019-03-15T05:22:37.627Z,34.00
2019-03-15T05:25:06.127Z,27.80
2019-03-15T05:27:34.141Z,31.37
2019-03-15T05:30:02.278Z,29.90
2019-03-15T05:32:33.187Z,41.87
2019-03-15T05:35:01.205Z,37.73
2019-03-15T05:37:29.325Z,32.87
2019-03-15T05:39:57.437Z,29.53
2019-03-15T05:42:25.499Z,30.17
2019-03-15T05:44:53.608Z,31.80
2019-03-15T05:47:21.669Z,26.13
2019-03-15T05:49:49.705Z,34.60
2019-03-15T05:52:17.835Z,31.83
2019-03-15T05:54:45.961Z,31.77
2019-03-15T05:57:14.089Z,37.00
2019-03-15T05:59:42.235Z,42.83
2019-03-15T06:02:10.365Z,30.63
2019-03-15T06:04:38.548Z,40.67
2019-03-15T06:07:06.601Z,33.23
2019-03-15T06:09:34.762Z,31.17
2019-03-15T06:12:03.031Z,30.07
2019-03-15T06:14:31.043Z,35.20
2019-03-15T06:17:00.221Z,33.87
2019-03-15T06:19:28.222Z,29.03
2019-03-15T06:21:56.422Z,38.10
2019-03-15T06:24:24.502Z,35.37
2019-03-15T06:26:52.544Z,40.27
2019-03-15T06:29:20.864Z,39.60
2019-03-15T06:31:49.987Z,35.07
2019-03-15T06:34:17.995Z,38.30
2019-03-15T06:36:46.135Z,32.73
2019-03-15T06:39:14.229Z,38.00
2019-03-15T06:41:43.579Z,29.80
2019-03-15T06:44:11.796Z,38.23
2019-03-15T06:46:39.883Z,28.37
2019-03-15T06:49:07.967Z,36.27
2019-03-15T06:51:38.442Z,32.33
2019-03-15T06:54:11.502Z,33.03
2019-03-15T06:56:36.535Z,26.10
2019-03-15T06:59:04.601Z,39.17
2019-03-15T07:01:32.677Z,34.67
2019-03-15T07:04:00.766Z,32.17
2019-03-15T07:06:28.970Z,32.17
2019-03-15T07:08:57.161Z,33.27
2019-03-15T07:11:25.222Z,44.23
2019-03-15T07:13:53.381Z,26.37
2019-03-15T07:16:21.482Z,33.30
2019-03-15T07:18:49.635Z,38.27
2019-03-15T07:21:17.786Z,35.93
2019-03-15T07:23:46.112Z,33.23
2019-03-15T07:26:14.304Z,33.93
2019-03-15T07:28:42.441Z,32.80
2019-03-15T07:31:10.552Z,37.67
2019-03-15T07:33:38.736Z,32.77
2019-03-15T07:36:06.821Z,31.50
2019-03-15T07:38:34.925Z,28.87
2019-03-15T07:41:03.013Z,29.00
2019-03-15T07:43:31.046Z,33.60
2019-03-15T07:45:59.151Z,26.07
2019-03-15T07:48:27.232Z,31.53
2019-03-15T07:50:55.480Z,39.43
2019-03-15T07:53:23.708Z,30.17
2019-03-15T07:55:51.829Z,31.47
2019-03-15T07:58:19.971Z,40.20
2019-03-15T08:00:49.853Z,29.33
2019-03-15T08:03:19.016Z,28.30
2019-03-15T08:05:47.208Z,27.63
2019-03-15T08:08:15.320Z,24.00
2019-03-15T08:10:43.496Z,28.17
2019-03-15T08:13:11.870Z,23.30
2019-03-15T08:15:40.039Z,29.87
2019-03-15T08:18:08.463Z,31.57
2019-03-15T08:20:38.238Z,35.13
2019-03-15T08:23:08.581Z,31.97
2019-03-15T08:25:56.498Z,32.97
2019-03-15T08:28:24.668Z,30.20
2019-03-15T08:30:53.774Z,26.27
2019-03-15T08:33:21.880Z,31.67
2019-03-15T08:35:50.013Z,29.47
2019-03-15T08:38:18.134Z,26.17
2019-03-15T08:40:46.253Z,26.70
2019-03-15T08:43:14.282Z,24.40
2019-03-15T08:45:42.281Z,32.27
2019-03-15T08:48:10.345Z,27.10
2019-03-15T08:50:38.499Z,27.70
2019-03-15T08:53:06.528Z,24.93
2019-03-15T08:55:36.084Z,27.17
2019-03-15T08:58:14.328Z,27.03
2019-03-15T09:00:34.837Z,29.27
2019-03-15T09:03:03.025Z,28.97
2019-03-15T09:05:31.390Z,23.17
2019-03-15T09:07:59.558Z,22.57
2019-03-15T09:10:27.603Z,27.83
2019-03-15T09:12:55.901Z,26.90
2019-03-15T09:15:24.050Z,26.67
2019-03-15T09:17:52.168Z,27.73
2019-03-15T09:20:20.212Z,24.13
2019-03-15T09:22:48.296Z,27.40
2019-03-15T09:25:19.984Z,29.33
2019-03-15T09:27:46.936Z,25.67
2019-03-15T09:30:23.157Z,26.23
2019-03-15T09:32:45.531Z,24.43
2019-03-15T09:35:13.580Z,26.07
2019-03-15T09:37:41.628Z,21.67
2019-03-15T09:40:10.209Z,29.37
2019-03-15T09:42:38.384Z,30.47
2019-03-15T09:45:07.809Z,22.90
2019-03-15T09:47:35.977Z,24.33
2019-03-15T09:50:04.770Z,29.80
2019-03-15T09:52:32.853Z,25.03
2019-03-15T09:55:00.914Z,25.87
2019-03-15T09:57:29.014Z,19.07
2019-03-15T09:59:57.627Z,23.13
2019-03-15T10:02:30.708Z,19.03
2019-03-15T10:05:09.760Z,21.70
2019-03-15T10:07:37.737Z,18.93
2019-03-15T10:09:56.522Z,19.63
2019-03-15T10:12:24.848Z,18.20
2019-03-15T10:14:52.973Z,16.57
2019-03-15T10:17:23.179Z,15.87
2019-03-15T10:19:51.675Z,22.00
2019-03-15T10:22:20.801Z,16.40
2019-03-15T10:24:51.094Z,17.07
2019-03-15T10:27:28.418Z,15.83
2019-03-15T10:29:57.191Z,21.67
2019-03-15T10:32:26.167Z,19.20
2019-03-15T10:34:54.681Z,19.40
2019-03-15T10:37:23.704Z,18.17
2019-03-15T10:39:52.788Z,19.33
2019-03-15T10:42:21.812Z,21.30
2019-03-15T10:44:50.926Z,19.67
2019-03-15T10:47:19.580Z,20.57
2019-03-15T10:49:58.826Z,16.87
2019-03-15T10:52:28.064Z,18.37
2019-03-15T10:54:56.662Z,19.70
2019-03-15T10:57:28.265Z,24.60
2019-03-15T10:59:57.884Z,20.30
2019-03-15T11:02:28.935Z,20.70
2019-03-15T11:04:57.651Z,19.40
2019-03-15T11:07:26.904Z,23.90
2019-03-15T11:09:56.745Z,20.70
2019-03-15T11:12:25.597Z,19.87
2019-03-15T11:14:54.194Z,20.23
2019-03-15T11:17:25.438Z,18.67
2019-03-15T11:19:54.426Z,25.13
2019-03-15T11:22:25.636Z,23.03
2019-03-15T11:24:54.126Z,19.30
2019-03-15T11:27:25.134Z,20.87
2019-03-15T11:29:53.900Z,18.60
2019-03-15T11:32:22.646Z,23.60
2019-03-15T11:34:51.616Z,25.37
2019-03-15T11:37:21.469Z,26.33
2019-03-15T11:39:50.405Z,24.67
2019-03-15T11:42:18.974Z,19.57
2019-03-15T11:44:47.164Z,19.53
2019-03-15T11:47:16.701Z,19.20
2019-03-15T11:49:44.942Z,19.47
2019-03-15T11:52:13.134Z,18.03
2019-03-15T11:54:41.244Z,19.70
2019-03-15T11:57:09.367Z,19.57
2019-03-15T11:59:37.594Z,20.07
2019-03-15T12:02:05.826Z,17.43
2019-03-15T12:04:34.025Z,18.87
2019-03-15T12:07:02.118Z,13.43
2019-03-15T12:09:30.474Z,17.27
2019-03-15T12:11:58.614Z,12.50
2019-03-15T12:14:40.211Z,13.90
2019-03-15T12:16:56.622Z,14.73
2019-03-15T12:19:25.141Z,16.07
2019-03-15T12:22:05.576Z,11.77
2019-03-15T12:24:23.296Z,12.33
2019-03-15T12:26:51.424Z,8.57
2019-03-15T12:29:19.629Z,10.97
2019-03-15T12:31:47.693Z,9.80
2019-03-15T12:34:16.133Z,9.03
2019-03-15T12:36:44.324Z,9.13
2019-03-15T12:39:12.534Z,12.07
2019-03-15T12:41:40.827Z,11.23
2019-03-15T12:44:10.539Z,10.27
2019-03-15T12:46:38.922Z,7.90
2019-03-15T12:49:07.915Z,8.37
2019-03-15T12:51:36.369Z,7.67
2019-03-15T12:54:04.927Z,7.77
2019-03-15T12:56:33.201Z,8.57
2019-03-15T12:59:01.780Z,9.17
2019-03-15T13:01:30.203Z,8.40
2019-03-15T13:03:58.270Z,7.80
2019-03-15T13:06:26.391Z,7.13
2019-03-15T13:08:54.518Z,7.20
2019-03-15T13:11:22.822Z,8.77
2019-03-15T13:13:52.220Z,8.67
2019-03-15T13:16:20.368Z,7.37
2019-03-15T13:18:48.429Z,6.10
2019-03-15T13:21:16.618Z,6.10
2019-03-15T13:23:47.184Z,8.40
2019-03-15T13:26:15.337Z,5.73
2019-03-15T13:28:43.484Z,8.20
2019-03-15T13:31:11.563Z,10.47
2019-03-15T13:33:39.653Z,7.60
2019-03-15T13:36:08.290Z,8.60
2019-03-15T13:38:36.475Z,10.87
2019-03-15T13:41:05.677Z,6.57
2019-03-15T13:43:33.892Z,5.20
2019-03-15T13:46:02.055Z,8.73
2019-03-15T13:48:30.251Z,10.03
2019-03-15T13:50:58.374Z,6.67
2019-03-15T13:53:27.584Z,10.50
2019-03-15T13:55:55.804Z,9.93
2019-03-15T13:58:27.415Z,8.90
2019-03-15T14:00:55.627Z,11.20
2019-03-15T14:03:23.719Z,13.47
2019-03-15T14:05:51.780Z,9.77
2019-03-15T14:08:19.821Z,9.07
2019-03-15T14:10:49.664Z,11.80
2019-03-15T14:13:18.032Z,10.77
2019-03-15T14:15:46.099Z,9.83
2019-03-15T14:18:15.241Z,10.20
2019-03-15T14:20:43.446Z,11.03
2019-03-15T14:23:11.649Z,10.63
2019-03-15T14:25:41.148Z,12.20
2019-03-15T14:28:09.328Z,6.77
2019-03-15T14:30:37.408Z,8.00
2019-03-15T14:33:05.711Z,12.50
2019-03-15T14:35:33.829Z,11.40
2019-03-15T14:38:02.023Z,13.43
2019-03-15T14:40:30.449Z,11.97
2019-03-15T14:42:58.733Z,10.27
2019-03-15T14:45:28.225Z,8.70
2019-03-15T14:47:56.400Z,15.53
2019-03-15T14:50:24.473Z,11.73
2019-03-15T14:52:52.658Z,14.03
2019-03-15T14:55:23.659Z,18.53
2019-03-15T14:57:53.327Z,16.93
2019-03-15T15:00:21.847Z,13.60
2019-03-15T15:02:50.109Z,9.43
2019-03-15T15:05:18.502Z,13.87
2019-03-15T15:07:46.575Z,8.80
2019-03-15T15:10:14.700Z,11.83
2019-03-15T15:12:43.318Z,17.73
2019-03-15T15:15:11.857Z,18.93
2019-03-15T15:17:42.712Z,13.40
2019-03-15T15:20:11.596Z,10.23
2019-03-15T15:22:39.914Z,18.83
2019-03-15T15:25:08.490Z,16.03
2019-03-15T15:27:37.502Z,12.40
2019-03-15T15:30:06.243Z,20.20
2019-03-15T15:32:34.375Z,10.20
2019-03-15T15:35:02.562Z,22.17
2019-03-15T15:37:30.631Z,18.17
2019-03-15T15:40:00.276Z,15.73
2019-03-15T15:42:28.495Z,12.90
2019-03-15T15:44:56.674Z,10.47
2019-03-15T15:47:24.827Z,10.77
2019-03-15T15:49:52.977Z,15.80
2019-03-15T15:52:21.054Z,18.60
2019-03-15T15:54:49.204Z,11.27
2019-03-15T15:57:17.270Z,16.87
2019-03-15T15:59:46.211Z,15.53
2019-03-15T16:02:14.262Z,12.03
2019-03-15T16:04:42.355Z,12.80
2019-03-15T16:07:10.413Z,15.20
2019-03-15T16:09:38.562Z,18.47
2019-03-15T16:12:06.711Z,11.77
2019-03-15T16:14:34.799Z,12.03
2019-03-15T16:17:02.978Z,19.67
2019-03-15T16:19:31.097Z,12.67
2019-03-15T16:21:59.190Z,20.83
2019-03-15T16:24:27.416Z,15.10
2019-03-15T16:26:55.610Z,17.13
2019-03-15T16:29:23.794Z,16.43
2019-03-15T16:31:51.920Z,15.70
2019-03-15T16:34:21.983Z,21.47
2019-03-15T16:36:50.010Z,17.43
2019-03-15T16:39:18.879Z,19.73
2019-03-15T16:41:47.030Z,17.80
2019-03-15T16:44:16.079Z,16.07
2019-03-15T16:46:44.174Z,17.37
2019-03-15T16:49:12.196Z,17.80
2019-03-15T16:51:40.367Z,18.40
2019-03-15T16:54:08.426Z,19.03
2019-03-15T16:56:36.509Z,19.33
2019-03-15T16:59:04.703Z,14.60
2019-03-15T17:01:34.442Z,19.03
2019-03-15T17:04:02.700Z,20.27
2019-03-15T17:06:30.777Z,16.40
2019-03-15T17:08:58.866Z,12.93
2019-03-15T17:11:27.024Z,19.50
2019-03-15T17:13:55.145Z,18.67
2019-03-15T17:16:23.215Z,20.00
2019-03-15T17:18:51.355Z,16.30
2019-03-15T17:21:19.522Z,19.43
2019-03-15T17:23:47.640Z,21.53
2019-03-15T17:26:15.748Z,13.80
2019-03-15T17:28:43.858Z,23.03
2019-03-15T17:31:12.382Z,16.17
2019-03-15T17:33:40.430Z,20.37
2019-03-15T17:36:08.567Z,20.83
2019-03-15T17:38:36.606Z,18.27
2019-03-15T17:41:04.650Z,16.50
2019-03-15T17:43:34.845Z,23.90
2019-03-15T17:46:03.277Z,20.63
2019-03-15T17:48:33.728Z,21.50
2019-03-15T17:51:03.238Z,23.37
2019-03-15T17:53:31.403Z,20.00
2019-03-15T17:55:59.552Z,21.80
2019-03-15T17:58:28.670Z,19.20
2019-03-15T18:00:58.349Z,20.00
2019-03-15T18:03:26.537Z,27.37
2019-03-15T18:05:54.645Z,15.80
2019-03-15T18:08:23.063Z,24.27
2019-03-15T18:10:51.152Z,21.30
2019-03-15T18:13:19.380Z,22.20
2019-03-15T18:15:47.501Z,18.77
2019-03-15T18:18:15.612Z,18.47
2019-03-15T18:20:43.657Z,24.33
2019-03-15T18:23:11.703Z,23.10
2019-03-15T18:25:39.845Z,19.77
2019-03-15T18:28:08.005Z,21.03
2019-03-15T18:30:36.083Z,21.20
2019-03-15T18:33:04.235Z,22.33
2019-03-15T18:35:33.913Z,18.50
2019-03-15T18:38:02.309Z,23.70
2019-03-15T18:40:30.387Z,20.57
2019-03-15T18:42:58.394Z,22.20
2019-03-15T18:45:26.556Z,22.77
2019-03-15T18:47:54.920Z,25.23
2019-03-15T18:50:23.247Z,18.40
2019-03-15T18:52:51.318Z,24.60
2019-03-15T18:55:19.353Z,16.03
2019-03-15T18:57:47.475Z,19.13
2019-03-15T19:00:18.470Z,17.37
2019-03-15T19:02:49.790Z,22.37
2019-03-15T19:05:18.039Z,23.63
2019-03-15T19:07:46.897Z,16.43
2019-03-15T19:10:16.597Z,21.47
2019-03-15T19:12:44.955Z,20.97
2019-03-15T19:15:13.378Z,21.40
2019-03-15T19:17:41.631Z,24.10
2019-03-15T19:20:10.043Z,17.63
2019-03-15T19:22:38.231Z,19.77
2019-03-15T19:25:06.828Z,22.17
2019-03-15T19:27:35.355Z,21.20
2019-03-15T19:30:05.945Z,26.80
2019-03-15T19:32:34.398Z,25.07
2019-03-15T19:35:02.545Z,23.47
2019-03-15T19:37:30.833Z,29.87
2019-03-15T19:40:00.107Z,19.80
2019-03-15T19:42:29.276Z,29.27
2019-03-15T19:44:57.445Z,23.27
2019-03-15T19:47:25.685Z,22.13
2019-03-15T19:49:53.849Z,27.60
2019-03-15T19:52:21.969Z,24.13
2019-03-15T19:54:59.998Z,31.87
2019-03-15T19:57:20.429Z,22.47
2019-03-15T19:59:48.508Z,20.10
2019-03-15T20:02:16.671Z,30.50
2019-03-15T20:04:44.780Z,31.43
2019-03-15T20:07:12.856Z,30.63
2019-03-15T20:09:41.120Z,21.60
2019-03-15T20:12:09.645Z,23.03
2019-03-15T20:14:37.731Z,20.03
2019-03-15T20:17:06.123Z,31.03
2019-03-15T20:19:34.269Z,25.10
2019-03-15T20:22:02.418Z,25.50
2019-03-15T20:24:30.591Z,20.63
2019-03-15T20:26:59.808Z,23.33
2019-03-15T20:29:28.028Z,30.93
2019-03-15T20:31:56.280Z,22.13
2019-03-15T20:34:24.592Z,24.90
2019-03-15T20:36:52.775Z,21.80
2019-03-15T20:39:21.911Z,37.77
2019-03-15T20:41:50.068Z,22.30
2019-03-15T20:44:27.834Z,25.60
2019-03-15T20:46:48.168Z,26.37
2019-03-15T20:49:16.244Z,32.27
2019-03-15T20:51:44.416Z,30.63
2019-03-15T20:54:12.528Z,26.03
2019-03-15T20:56:40.627Z,25.87
2019-03-15T20:59:11.040Z,24.70
2019-03-15T21:01:39.344Z,27.17
2019-03-15T21:04:07.554Z,26.53
2019-03-15T21:06:35.750Z,35.10
2019-03-15T21:09:06.599Z,24.57
2019-03-15T21:11:35.681Z,34.03
2019-03-15T21:14:04.012Z,23.27
2019-03-15T21:16:32.126Z,26.53
2019-03-15T21:19:00.204Z,25.93
2019-03-15T21:21:28.211Z,27.57
2019-03-15T21:23:56.345Z,31.00
2019-03-15T21:26:26.547Z,21.87
2019-03-15T21:28:54.706Z,21.27
2019-03-15T21:31:22.798Z,22.90
2019-03-15T21:33:50.841Z,22.93
2019-03-15T21:36:18.922Z,25.50
2019-03-15T21:38:48.408Z,25.57
2019-03-15T21:41:16.891Z,29.33
2019-03-15T21:43:45.164Z,33.43
2019-03-15T21:46:13.299Z,28.97
2019-03-15T21:48:41.417Z,22.83
2019-03-15T21:51:09.521Z,25.30
2019-03-15T21:53:37.572Z,25.40
2019-03-15T21:56:05.790Z,26.87
2019-03-15T21:58:33.875Z,30.72
2019-03-15T22:01:02.913Z,27.77
2019-03-15T22:03:31.358Z,26.50
2019-03-15T22:05:59.710Z,22.63
2019-03-15T22:08:27.773Z,29.33
2019-03-15T22:10:55.985Z,25.53
2019-03-15T22:13:24.128Z,30.87
2019-03-15T22:15:52.312Z,25.33
2019-03-15T22:18:20.410Z,19.03
2019-03-15T22:20:48.525Z,28.83
2019-03-15T22:23:16.690Z,28.80
2019-03-15T22:25:44.759Z,25.03
2019-03-15T22:28:12.861Z,22.50
2019-03-15T22:30:40.900Z,22.70
2019-03-15T22:33:08.959Z,23.17
2019-03-15T22:35:37.031Z,26.87
2019-03-15T22:38:05.110Z,31.53
2019-03-15T22:40:33.622Z,23.97
2019-03-15T22:43:04.690Z,28.80
2019-03-15T22:45:34.184Z,25.73
2019-03-15T22:48:04.019Z,19.23
2019-03-15T22:50:32.249Z,31.93
2019-03-15T22:53:00.330Z,38.63
2019-03-15T22:55:29.398Z,30.33
2019-03-15T22:58:00.041Z,30.20
2019-03-15T23:00:35.163Z,28.07
2019-03-15T23:03:05.757Z,29.30
2019-03-15T23:05:34.089Z,32.83
2019-03-15T23:08:02.251Z,33.57
2019-03-15T23:10:31.335Z,23.13
2019-03-15T23:12:59.542Z,33.10
2019-03-15T23:15:27.693Z,29.43
2019-03-15T23:17:55.816Z,30.07
2019-03-15T23:20:23.944Z,30.17
2019-03-15T23:22:54.699Z,27.37
2019-03-15T23:25:22.298Z,29.80
2019-03-15T23:27:50.475Z,26.27
2019-03-15T23:30:20.119Z,28.33
2019-03-15T23:32:48.196Z,26.30
2019-03-15T23:35:16.372Z,24.53
2019-03-15T23:37:44.495Z,30.80
2019-03-15T23:40:12.784Z,24.57
2019-03-15T23:42:41.045Z,25.37
2019-03-15T23:45:09.266Z,23.37
2019-03-15T23:47:37.364Z,29.37
2019-03-15T23:50:05.952Z,28.73
2019-03-15T23:52:34.036Z,25.70
2019-03-15T23:55:02.070Z,27.27
2019-03-15T23:57:30.702Z,30.37
2019-03-15T23:59:58.803Z,24.30
